createdAt,value
2023-03-26T00:01:16.878Z,11.27
2023-03-26T00:03:44.970Z,11.01
2023-03-26T00:06:13.564Z,10.86
2023-03-26T00:08:41.710Z,10.95
2023-03-26T00:11:12.843Z,10.75
2023-03-26T00:13:39.480Z,10.64
2023-03-26T00:16:06.362Z,10.76
2023-03-26T00:18:33.551Z,10.70
2023-03-26T00:21:02.116Z,10.81
2023-03-26T00:23:29.401Z,10.83
2023-03-26T00:25:56.640Z,10.78
2023-03-26T00:28:24.004Z,10.59
2023-03-26T00:30:57.218Z,10.64
2023-03-26T00:33:24.049Z,10.62
2023-03-26T00:35:58.899Z,10.76
2023-03-26T00:38:27.098Z,10.86
2023-03-26T00:40:54.558Z,10.78
2023-03-26T00:43:22.467Z,10.73
2023-03-26T00:45:51.365Z,10.78
2023-03-26T00:48:18.306Z,10.88
2023-03-26T00:50:46.204Z,10.93
2023-03-26T00:53:13.522Z,11.10
2023-03-26T00:55:41.244Z,11.22
2023-03-26T00:58:08.632Z,11.09
2023-03-26T01:00:36.472Z,10.63
2023-03-26T01:03:04.472Z,10.34
2023-03-26T01:05:34.045Z,10.38
2023-03-26T01:08:05.365Z,10.60
2023-03-26T01:10:31.923Z,10.76
2023-03-26T01:12:58.473Z,10.90
2023-03-26T01:15:24.992Z,10.53
2023-03-26T01:17:51.586Z,10.54
2023-03-26T01:20:24.097Z,10.77
2023-03-26T01:22:53.023Z,10.83
2023-03-26T01:25:21.581Z,11.02
2023-03-26T01:27:54.515Z,11.16
2023-03-26T01:30:34.851Z,11.13
2023-03-26T01:33:02.658Z,11.27
2023-03-26T01:35:33.477Z,11.23
2023-03-26T01:38:02.853Z,11.22
2023-03-26T01:40:37.111Z,11.41
2023-03-26T01:43:11.213Z,11.29
2023-03-26T01:45:40.154Z,11.22
2023-03-26T01:48:07.086Z,11.34
2023-03-26T01:50:33.663Z,11.34
2023-03-26T01:53:00.568Z,11.32
2023-03-26T01:55:35.682Z,11.41
2023-03-26T01:58:15.791Z,11.42
2023-03-26T02:00:48.824Z,11.45
2023-03-26T02:03:26.629Z,11.42
2023-03-26T02:06:14.992Z,11.23
2023-03-26T02:08:54.212Z,11.29
2023-03-26T02:11:21.600Z,11.38
2023-03-26T02:13:51.245Z,11.35
2023-03-26T02:16:17.799Z,11.52
2023-03-26T02:18:46.056Z,11.57
2023-03-26T02:21:21.028Z,11.42
2023-03-26T02:23:50.640Z,11.43
2023-03-26T02:26:19.637Z,11.21
2023-03-26T02:28:46.135Z,11.02
2023-03-26T02:31:12.735Z,10.79
2023-03-26T02:33:39.745Z,10.53
2023-03-26T02:36:07.471Z,10.56
2023-03-26T02:38:34.715Z,10.62
2023-03-26T02:41:02.398Z,10.65
2023-03-26T02:43:29.131Z,10.61
2023-03-26T02:45:55.968Z,10.77
2023-03-26T02:48:22.898Z,10.85
2023-03-26T02:50:49.727Z,10.75
2023-03-26T02:53:16.840Z,10.66
2023-03-26T02:55:43.375Z,10.80
2023-03-26T02:58:10.543Z,10.94
2023-03-26T03:00:37.058Z,10.76
2023-03-26T03:03:03.840Z,11.04
2023-03-26T03:05:31.731Z,10.94
2023-03-26T03:07:58.817Z,10.67
2023-03-26T03:10:32.666Z,10.77
2023-03-26T03:12:59.534Z,10.57
2023-03-26T03:15:26.135Z,10.60
2023-03-26T03:17:52.697Z,10.33
2023-03-26T03:20:19.175Z,10.45
2023-03-26T03:22:45.676Z,10.29
2023-03-26T03:25:12.166Z,10.14
2023-03-26T03:27:38.690Z,10.04
2023-03-26T03:30:06.357Z,10.11
2023-03-26T03:32:33.094Z,9.94
2023-03-26T03:34:59.633Z,9.82
2023-03-26T03:37:26.246Z,9.73
2023-03-26T03:39:52.818Z,9.89
2023-03-26T03:42:19.326Z,9.94
2023-03-26T03:44:45.879Z,9.94
2023-03-26T03:47:12.409Z,10.00
2023-03-26T03:49:39.616Z,10.10
2023-03-26T03:52:06.408Z,10.19
2023-03-26T03:54:33.194Z,10.26
2023-03-26T03:56:59.861Z,10.19
2023-03-26T03:59:26.407Z,10.10
2023-03-26T04:02:24.288Z,10.02
2023-03-26T04:04:50.892Z,9.85
2023-03-26T04:07:17.367Z,9.88
2023-03-26T04:09:43.855Z,9.93
2023-03-26T04:12:10.349Z,10.08
2023-03-26T04:14:36.857Z,10.04
2023-03-26T04:17:03.415Z,9.92
2023-03-26T04:19:29.936Z,10.13
2023-03-26T04:21:56.558Z,10.22
2023-03-26T04:24:23.038Z,10.19
2023-03-26T04:26:49.610Z,10.07
2023-03-26T04:29:16.388Z,10.04
2023-03-26T04:31:42.961Z,10.24
2023-03-26T04:34:23.286Z,10.35
2023-03-26T04:36:49.835Z,10.27
2023-03-26T04:39:16.321Z,10.19
2023-03-26T04:41:42.912Z,10.11
2023-03-26T04:44:09.384Z,10.07
2023-03-26T04:46:35.900Z,10.08
2023-03-26T04:49:02.509Z,9.85
2023-03-26T04:51:35.767Z,9.77
2023-03-26T04:54:02.405Z,9.79
2023-03-26T04:56:34.929Z,9.82
2023-03-26T04:59:02.237Z,9.85
2023-03-26T05:01:28.842Z,9.94
2023-03-26T05:03:55.475Z,9.67
2023-03-26T05:06:22.107Z,9.72
2023-03-26T05:08:48.923Z,9.89
2023-03-26T05:11:15.608Z,9.79
2023-03-26T05:13:42.075Z,9.72
2023-03-26T05:16:09.838Z,9.73
2023-03-26T05:18:36.462Z,9.50
2023-03-26T05:21:03.142Z,9.61
2023-03-26T05:23:29.638Z,9.37
2023-03-26T05:25:56.183Z,9.09
2023-03-26T05:28:22.787Z,9.23
2023-03-26T05:30:49.333Z,9.45
2023-03-26T05:33:15.871Z,9.54
2023-03-26T05:35:42.463Z,9.58
2023-03-26T05:38:09.007Z,9.65
2023-03-26T05:40:35.510Z,9.85
2023-03-26T05:43:02.359Z,10.04
2023-03-26T05:45:29.054Z,10.10
2023-03-26T05:47:55.593Z,10.11
2023-03-26T05:50:22.963Z,10.13
2023-03-26T05:52:51.039Z,10.16
2023-03-26T05:55:17.762Z,10.27
2023-03-26T05:57:44.263Z,9.88
2023-03-26T06:00:11.171Z,10.01
2023-03-26T06:02:37.777Z,9.93
2023-03-26T06:05:04.603Z,9.94
2023-03-26T06:07:31.128Z,9.78
2023-03-26T06:09:57.606Z,9.56
2023-03-26T06:12:24.094Z,9.46
2023-03-26T06:14:50.618Z,9.35
2023-03-26T06:17:17.118Z,9.29
2023-03-26T06:19:43.613Z,9.27
2023-03-26T06:22:10.210Z,9.40
2023-03-26T06:24:36.704Z,9.32
2023-03-26T06:27:03.235Z,9.27
2023-03-26T06:29:29.709Z,9.22
2023-03-26T06:31:59.574Z,9.26
2023-03-26T06:34:29.988Z,9.29
2023-03-26T06:36:56.527Z,9.51
2023-03-26T06:39:23.000Z,9.59
2023-03-26T06:41:49.449Z,9.67
2023-03-26T06:44:15.939Z,9.84
2023-03-26T06:46:42.476Z,9.88
2023-03-26T06:49:09.105Z,10.13
2023-03-26T06:51:35.810Z,10.26
2023-03-26T06:54:02.311Z,10.40
2023-03-26T06:56:28.808Z,10.48
2023-03-26T06:58:55.301Z,10.39
2023-03-26T07:01:22.121Z,10.33
2023-03-26T07:03:51.799Z,10.57
2023-03-26T07:06:18.359Z,10.60
2023-03-26T07:08:44.869Z,10.53
2023-03-26T07:11:11.448Z,10.20
2023-03-26T07:13:37.966Z,10.25
2023-03-26T07:16:04.852Z,10.08
2023-03-26T07:18:31.370Z,10.19
2023-03-26T07:20:58.206Z,10.01
2023-03-26T07:23:25.054Z,10.07
2023-03-26T07:25:51.869Z,10.00
2023-03-26T07:28:32.841Z,10.09
2023-03-26T07:31:33.631Z,9.96
2023-03-26T07:34:21.361Z,10.06
2023-03-26T07:36:57.487Z,10.26
2023-03-26T07:39:43.090Z,10.20
2023-03-26T07:42:27.889Z,10.36
2023-03-26T07:45:09.439Z,10.71
2023-03-26T07:47:36.468Z,10.89
2023-03-26T07:50:03.545Z,11.13
2023-03-26T07:52:30.389Z,10.86
2023-03-26T07:54:57.160Z,10.92
2023-03-26T07:57:35.622Z,10.77
2023-03-26T08:00:12.166Z,10.69
2023-03-26T08:02:47.913Z,10.68
2023-03-26T08:05:45.530Z,10.85
2023-03-26T08:08:58.373Z,10.78
2023-03-26T08:11:57.661Z,10.72
2023-03-26T08:14:44.152Z,10.61
2023-03-26T08:17:45.039Z,10.71
2023-03-26T08:20:31.565Z,10.78
2023-03-26T08:24:00.334Z,10.92
2023-03-26T08:27:15.873Z,10.99
2023-03-26T08:30:25.260Z,11.06
2023-03-26T08:33:13.996Z,11.31
2023-03-26T08:36:00.500Z,11.34
2023-03-26T08:38:47.073Z,11.18
2023-03-26T08:41:48.853Z,11.41
2023-03-26T08:44:38.323Z,11.48
2023-03-26T08:47:36.958Z,11.46
2023-03-26T08:50:34.495Z,11.55
2023-03-26T08:53:38.753Z,11.78
2023-03-26T08:56:29.505Z,11.15
2023-03-26T08:59:05.288Z,10.85
2023-03-26T09:01:31.753Z,10.87
2023-03-26T09:04:34.930Z,10.84
2023-03-26T09:07:26.342Z,10.74
2023-03-26T09:10:14.675Z,10.95
2023-03-26T09:13:01.058Z,11.12
2023-03-26T09:15:39.458Z,11.38
2023-03-26T09:18:12.157Z,11.24
2023-03-26T09:21:17.058Z,11.29
2023-03-26T09:24:02.257Z,11.24
2023-03-26T09:26:38.053Z,11.35
2023-03-26T09:29:23.102Z,11.48
2023-03-26T09:32:26.760Z,11.23
2023-03-26T09:35:13.542Z,10.96
2023-03-26T09:37:56.320Z,10.54
2023-03-26T09:40:42.983Z,10.59
2023-03-26T09:43:35.413Z,10.42
2023-03-26T09:46:11.150Z,10.47
2023-03-26T09:49:12.992Z,10.29
2023-03-26T09:52:15.993Z,10.00
2023-03-26T09:55:05.126Z,10.17
2023-03-26T09:57:34.395Z,10.31
2023-03-26T10:00:18.715Z,10.55
2023-03-26T10:03:13.219Z,10.62
2023-03-26T10:06:20.097Z,9.70
2023-03-26T10:08:55.700Z,9.84
2023-03-26T10:11:27.384Z,10.04
2023-03-26T10:14:19.727Z,10.02
2023-03-26T10:16:55.738Z,10.03
2023-03-26T10:19:22.170Z,10.24
2023-03-26T10:22:16.942Z,9.98
2023-03-26T10:25:28.190Z,10.40
2023-03-26T10:28:28.625Z,10.44
2023-03-26T10:31:01.708Z,10.21
2023-03-26T10:33:28.219Z,10.31
2023-03-26T10:36:32.355Z,10.75
2023-03-26T10:39:01.559Z,10.68
2023-03-26T10:41:43.651Z,10.98
2023-03-26T10:44:40.940Z,11.41
2023-03-26T10:47:10.300Z,11.40
2023-03-26T10:50:05.850Z,11.25
2023-03-26T10:52:40.530Z,11.40
2023-03-26T10:55:47.484Z,11.54
2023-03-26T10:58:48.410Z,11.53
2023-03-26T11:01:51.604Z,11.09
2023-03-26T11:04:39.556Z,10.64
2023-03-26T11:07:21.219Z,10.57
2023-03-26T11:09:54.112Z,10.78
2023-03-26T11:12:29.407Z,11.23
2023-03-26T11:15:21.703Z,10.75
2023-03-26T11:18:06.015Z,10.76
2023-03-26T11:20:48.712Z,10.71
2023-03-26T11:23:36.148Z,10.66
2023-03-26T11:26:05.596Z,10.58
2023-03-26T11:29:03.998Z,10.54
2023-03-26T11:31:45.724Z,9.96
2023-03-26T11:34:17.490Z,9.56
2023-03-26T11:36:48.916Z,9.27
2023-03-26T11:39:23.515Z,9.22
2023-03-26T11:41:53.316Z,8.96
2023-03-26T11:44:39.728Z,8.83
2023-03-26T11:47:10.148Z,8.45
2023-03-26T11:49:37.444Z,8.42
2023-03-26T11:52:03.977Z,8.30
2023-03-26T11:54:30.620Z,8.24
2023-03-26T11:57:05.120Z,8.43
2023-03-26T11:59:57.993Z,7.86
2023-03-26T12:02:28.879Z,7.52
2023-03-26T12:05:14.233Z,7.52
2023-03-26T12:07:52.525Z,7.64
2023-03-26T12:10:25.178Z,7.75
2023-03-26T12:12:54.809Z,7.93
2023-03-26T12:15:21.731Z,8.05
2023-03-26T12:17:50.915Z,8.14
2023-03-26T12:20:26.847Z,8.67
2023-03-26T12:23:01.364Z,9.15
2023-03-26T12:25:30.000Z,9.43
2023-03-26T12:28:17.140Z,9.44
2023-03-26T12:30:59.448Z,9.68
2023-03-26T12:33:34.599Z,9.58
2023-03-26T12:36:20.053Z,9.79
2023-03-26T12:38:46.567Z,9.75
2023-03-26T12:44:44.186Z,9.40
2023-03-26T12:44:55.849Z,9.21
2023-03-26T12:47:59.727Z,9.14
2023-03-26T12:50:06.940Z,9.24
2023-03-26T12:52:48.614Z,9.39
2023-03-26T12:55:24.179Z,9.24
2023-03-26T12:58:14.764Z,8.96
2023-03-26T13:01:29.570Z,8.78
2023-03-26T13:03:59.645Z,8.29
2023-03-26T13:07:00.226Z,7.50
2023-03-26T13:09:46.826Z,6.36
2023-03-26T13:12:53.353Z,5.93
2023-03-26T13:16:00.620Z,6.00
2023-03-26T13:18:57.313Z,6.30
2023-03-26T13:21:57.579Z,6.45
2023-03-26T13:24:33.656Z,6.82
2023-03-26T13:27:10.960Z,7.26
2023-03-26T13:29:56.217Z,7.94
2023-03-26T13:32:49.395Z,8.31
2023-03-26T13:35:43.626Z,8.30
2023-03-26T13:38:28.683Z,8.31
2023-03-26T13:41:06.811Z,8.85
2023-03-26T13:43:45.359Z,9.14
2023-03-26T13:46:32.421Z,9.41
2023-03-26T13:49:13.729Z,9.27
2023-03-26T13:51:44.264Z,9.42
2023-03-26T13:54:40.079Z,9.48
2023-03-26T13:57:18.730Z,10.21
2023-03-26T14:00:05.426Z,10.32
2023-03-26T14:02:53.613Z,10.57
2023-03-26T14:05:27.240Z,10.67
2023-03-26T14:08:06.787Z,11.06
2023-03-26T14:10:37.204Z,10.52
2023-03-26T14:13:15.295Z,10.64
2023-03-26T14:15:47.123Z,10.97
2023-03-26T14:18:22.858Z,10.76
2023-03-26T14:21:26.967Z,10.67
2023-03-26T14:24:20.422Z,10.56
2023-03-26T14:27:05.732Z,10.72
2023-03-26T14:29:56.745Z,10.76
2023-03-26T14:32:45.954Z,10.92
2023-03-26T14:35:37.112Z,11.26
2023-03-26T14:38:15.005Z,11.30
2023-03-26T14:41:19.126Z,10.92
2023-03-26T14:44:06.265Z,10.81
2023-03-26T14:46:55.766Z,11.12
2023-03-26T14:49:51.110Z,11.24
2023-03-26T14:52:38.719Z,11.50
2023-03-26T14:55:31.689Z,11.38
2023-03-26T14:58:20.030Z,11.65
2023-03-26T15:01:23.585Z,11.68
2023-03-26T15:04:14.793Z,11.54
2023-03-26T15:07:02.937Z,11.43
2023-03-26T15:09:54.922Z,11.83
2023-03-26T15:12:24.331Z,11.94
2023-03-26T15:14:50.811Z,11.88
2023-03-26T15:17:36.069Z,11.66
2023-03-26T15:20:26.500Z,11.73
2023-03-26T15:23:36.514Z,11.37
2023-03-26T15:26:42.013Z,11.02
2023-03-26T15:29:23.619Z,10.98
2023-03-26T15:32:25.183Z,11.14
2023-03-26T15:35:10.176Z,11.49
2023-03-26T15:38:14.146Z,11.56
2023-03-26T15:40:47.926Z,11.55
2023-03-26T15:43:19.910Z,11.61
2023-03-26T15:46:11.327Z,12.08
2023-03-26T15:49:10.020Z,12.25
2023-03-26T15:51:55.249Z,12.20
2023-03-26T15:54:29.312Z,12.25
2023-03-26T15:57:01.805Z,12.15
2023-03-26T15:59:34.126Z,12.59
2023-03-26T16:02:16.970Z,12.69
2023-03-26T16:04:50.267Z,12.53
2023-03-26T16:07:43.318Z,12.36
2023-03-26T16:10:21.627Z,12.01
2023-03-26T16:13:14.814Z,11.79
2023-03-26T16:15:41.847Z,11.84
2023-03-26T16:18:11.085Z,11.80
2023-03-26T16:20:47.839Z,11.76
2023-03-26T16:23:47.763Z,11.91
2023-03-26T16:26:36.693Z,12.16
2023-03-26T16:29:19.530Z,12.23
2023-03-26T16:32:33.485Z,12.20
2023-03-26T16:35:08.539Z,12.25
2023-03-26T16:37:48.369Z,12.18
2023-03-26T16:40:17.816Z,12.15
2023-03-26T16:42:55.159Z,12.32
2023-03-26T16:45:45.306Z,12.32
2023-03-26T16:48:40.988Z,12.09
2023-03-26T16:51:16.240Z,12.01
2023-03-26T16:54:04.331Z,12.11
2023-03-26T16:56:44.078Z,12.04
2023-03-26T16:59:37.244Z,12.11
2023-03-26T17:02:13.393Z,12.09
2023-03-26T17:04:46.531Z,12.07
2023-03-26T17:07:32.643Z,11.79
2023-03-26T17:10:28.694Z,11.56
2023-03-26T17:13:03.421Z,11.27
2023-03-26T17:16:09.938Z,10.91
2023-03-26T17:19:09.536Z,10.40
2023-03-26T17:21:55.317Z,10.00
2023-03-26T17:24:24.869Z,10.05
2023-03-26T17:27:16.102Z,10.01
2023-03-26T17:29:55.114Z,10.18
2023-03-26T17:32:21.817Z,10.20
2023-03-26T17:34:51.449Z,10.39
2023-03-26T17:37:17.885Z,10.51
2023-03-26T17:39:44.304Z,10.45
2023-03-26T17:42:18.388Z,10.58
2023-03-26T17:44:50.682Z,10.64
2023-03-26T17:47:26.509Z,10.72
2023-03-26T17:50:22.244Z,10.59
2023-03-26T17:52:57.560Z,10.64
2023-03-26T17:55:33.028Z,10.57
2023-03-26T17:58:01.396Z,10.58
2023-03-26T18:00:42.863Z,10.79
2023-03-26T18:03:18.764Z,10.88
2023-03-26T18:05:46.366Z,10.97
2023-03-26T18:08:41.422Z,10.82
2023-03-26T18:11:24.595Z,10.86
2023-03-26T18:14:16.909Z,10.80
2023-03-26T18:16:45.570Z,10.81
2023-03-26T18:19:17.672Z,11.02
2023-03-26T18:22:05.017Z,10.50
2023-03-26T18:24:36.699Z,9.91
2023-03-26T18:27:12.278Z,9.11
2023-03-26T18:29:43.363Z,8.88
2023-03-26T18:32:09.855Z,8.48
2023-03-26T18:34:47.281Z,8.32
2023-03-26T18:37:22.178Z,8.11
2023-03-26T18:40:02.220Z,8.02
2023-03-26T18:42:30.636Z,8.10
2023-03-26T18:45:00.542Z,7.81
2023-03-26T18:47:29.311Z,7.96
2023-03-26T18:49:57.129Z,8.08
2023-03-26T18:52:23.666Z,8.01
2023-03-26T18:54:55.416Z,8.15
2023-03-26T18:57:28.251Z,8.38
2023-03-26T19:00:00.610Z,8.47
2023-03-26T19:02:27.334Z,8.34
2023-03-26T19:04:54.120Z,8.34
2023-03-26T19:07:25.034Z,8.39
2023-03-26T19:09:52.959Z,8.42
2023-03-26T19:12:27.916Z,8.71
2023-03-26T19:15:06.280Z,8.93
2023-03-26T19:17:39.191Z,8.95
2023-03-26T19:20:08.438Z,9.07
2023-03-26T19:22:37.664Z,8.74
2023-03-26T19:25:05.797Z,8.35
2023-03-26T19:27:32.506Z,7.98
2023-03-26T19:29:59.012Z,7.92
2023-03-26T19:32:30.550Z,7.87
2023-03-26T19:34:59.201Z,7.66
2023-03-26T19:37:28.023Z,7.51
2023-03-26T19:40:02.227Z,7.49
2023-03-26T19:42:43.209Z,7.24
2023-03-26T19:45:21.748Z,7.81
2023-03-26T19:47:59.999Z,8.13
2023-03-26T19:50:35.524Z,7.97
2023-03-26T19:53:17.282Z,8.16
2023-03-26T19:55:58.242Z,7.87
2023-03-26T19:58:30.041Z,7.61
2023-03-26T20:00:56.837Z,7.58
2023-03-26T20:03:44.833Z,7.99
2023-03-26T20:06:23.664Z,7.81
2023-03-26T20:08:56.727Z,7.84
2023-03-26T20:11:33.365Z,8.19
2023-03-26T20:14:05.609Z,8.17
2023-03-26T20:16:33.732Z,8.41
2023-03-26T20:19:00.771Z,8.59
2023-03-26T20:21:27.296Z,8.71
2023-03-26T20:23:53.781Z,8.80
2023-03-26T20:26:21.801Z,8.91
2023-03-26T20:28:53.202Z,9.05
2023-03-26T20:31:25.453Z,9.20
2023-03-26T20:33:53.207Z,9.16
2023-03-26T20:36:33.201Z,9.19
2023-03-26T20:39:00.978Z,9.29
2023-03-26T20:41:29.659Z,9.37
2023-03-26T20:43:56.168Z,9.39
2023-03-26T20:46:31.309Z,9.48
2023-03-26T20:48:58.754Z,9.29
2023-03-26T20:51:25.351Z,9.31
2023-03-26T20:53:51.847Z,9.27
2023-03-26T20:56:19.438Z,9.52
2023-03-26T20:58:50.629Z,9.55
2023-03-26T21:01:22.235Z,9.31
2023-03-26T21:03:48.750Z,9.44
2023-03-26T21:06:15.218Z,9.47
2023-03-26T21:08:42.962Z,9.39
2023-03-26T21:11:27.464Z,9.31
2023-03-26T21:14:05.700Z,9.30
2023-03-26T21:16:32.586Z,9.31
2023-03-26T21:18:59.339Z,9.31
2023-03-26T21:21:31.885Z,9.16
2023-03-26T21:24:09.766Z,9.10
2023-03-26T21:26:45.213Z,9.14
2023-03-26T21:29:11.898Z,9.14
2023-03-26T21:31:38.791Z,9.19
2023-03-26T21:34:05.593Z,9.04
2023-03-26T21:36:32.507Z,8.87
2023-03-26T21:39:00.434Z,8.70
2023-03-26T21:41:35.529Z,8.79
2023-03-26T21:44:03.006Z,8.88
2023-03-26T21:46:30.138Z,8.66
2023-03-26T21:48:56.786Z,8.27
2023-03-26T21:51:23.681Z,8.35
2023-03-26T21:53:53.126Z,8.42
2023-03-26T21:56:44.947Z,8.25
2023-03-26T21:59:49.449Z,8.40
2023-03-26T22:02:23.463Z,8.15
2023-03-26T22:05:12.753Z,8.58
2023-03-26T22:07:51.471Z,8.82
2023-03-26T22:10:18.476Z,8.82
2023-03-26T22:12:44.977Z,8.95
2023-03-26T22:15:11.841Z,9.07
2023-03-26T22:17:38.746Z,9.28
2023-03-26T22:20:06.101Z,9.41
2023-03-26T22:22:34.971Z,9.52
2023-03-26T22:25:01.489Z,9.69
2023-03-26T22:27:28.021Z,9.76
2023-03-26T22:29:54.519Z,9.79
2023-03-26T22:32:20.996Z,9.74
2023-03-26T22:34:47.485Z,9.42
2023-03-26T22:37:14.023Z,9.54
2023-03-26T22:39:40.546Z,9.66
2023-03-26T22:42:07.027Z,9.61
2023-03-26T22:44:33.543Z,9.26
2023-03-26T22:47:00.128Z,9.31
2023-03-26T22:49:27.049Z,9.40
2023-03-26T22:51:54.730Z,9.51
2023-03-26T22:54:21.236Z,9.32
2023-03-26T22:56:47.810Z,8.99
2023-03-26T22:59:14.304Z,8.69
2023-03-26T23:01:40.837Z,8.77
2023-03-26T23:04:07.455Z,8.79
2023-03-26T23:06:34.138Z,8.78
2023-03-26T23:09:03.322Z,8.66
2023-03-26T23:11:30.172Z,8.87
2023-03-26T23:13:56.735Z,8.96
2023-03-26T23:16:23.387Z,8.94
2023-03-26T23:18:49.973Z,9.12
2023-03-26T23:21:18.743Z,9.13
2023-03-26T23:23:47.604Z,9.22
2023-03-26T23:26:14.336Z,8.87
2023-03-26T23:28:41.173Z,9.10
2023-03-26T23:31:09.686Z,9.07
2023-03-26T23:33:37.905Z,9.04
2023-03-26T23:36:07.453Z,8.93
2023-03-26T23:38:43.399Z,8.95
2023-03-26T23:41:15.707Z,8.99
2023-03-26T23:43:53.400Z,9.10
2023-03-26T23:46:24.769Z,9.12
2023-03-26T23:48:51.753Z,9.23
2023-03-26T23:51:19.010Z,9.31
2023-03-26T23:53:46.311Z,9.37
2023-03-26T23:56:13.040Z,8.76
2023-03-26T23:58:40.072Z,8.88
